Time;durP1;ratioP1;P1;durP2;ratioP2;P2;SDS_P1;SDS_P2;PMS_P1;PMS_P2;Temp;Humidity;BMP_temperature;BMP_pressure;BME280_temperature;BME280_humidity;BME280_pressure;Samples;Min_cycle;Max_cycle;Signal;HPM_P1;HPM_P2
2023/05/16 00:02:18;;;;;;;6.60;6.00;;;;;;;11.74;97.61;99481.21;1741539;81;25716;-60
2023/05/16 00:04:45;;;;;;;9.80;6.90;;;;;;;11.69;97.35;99478.14;1741698;82;25924;-60
2023/05/16 00:07:11;;;;;;;9.60;5.90;;;;;;;11.66;97.46;99480.16;1741571;81;25827;-59
2023/05/16 00:09:38;;;;;;;6.78;6.00;;;;;;;11.64;97.60;99485.70;1741738;81;25665;-59
2023/05/16 00:12:06;;;;;;;7.35;5.92;;;;;;;11.58;97.47;99481.86;1742247;81;27525;-59
2023/05/16 00:14:34;;;;;;;8.25;6.30;;;;;;;11.55;97.94;99492.00;1742972;81;25650;-60
2023/05/16 00:17:00;;;;;;;8.28;6.33;;;;;;;11.53;97.63;99490.77;1743075;81;25674;-59
2023/05/16 00:19:28;;;;;;;10.08;6.33;;;;;;;11.51;97.66;99486.23;1743000;81;25592;-59
2023/05/16 00:21:55;;;;;;;10.28;6.08;;;;;;;11.48;98.25;99490.98;1742888;81;25532;-59
2023/05/16 00:24:21;;;;;;;6.70;6.00;;;;;;;11.47;98.16;99486.67;1731754;82;27353;-57
2023/05/16 00:26:47;;;;;;;7.97;6.60;;;;;;;11.47;98.47;99485.33;1742828;81;25416;-58
2023/05/16 00:29:13;;;;;;;9.20;6.55;;;;;;;11.47;98.40;99488.81;1742952;81;29652;-58
2023/05/16 00:31:39;;;;;;;8.45;6.62;;;;;;;11.49;98.57;99485.23;1742859;81;25689;-59
2023/05/16 00:34:05;;;;;;;8.00;7.20;;;;;;;11.49;98.79;99488.48;1742966;81;25579;-58
2023/05/16 00:36:31;;;;;;;7.17;6.45;;;;;;;11.50;98.65;99482.73;1742947;82;27577;-59
2023/05/16 00:38:58;;;;;;;8.40;7.00;;;;;;;11.51;98.68;99491.09;1742878;82;25578;-59
2023/05/16 00:41:25;;;;;;;8.95;7.95;;;;;;;11.51;98.74;99478.91;1708234;82;25434;-58
2023/05/16 00:43:51;;;;;;;8.50;6.62;;;;;;;11.51;98.73;99479.45;1742946;82;25548;-59
2023/05/16 00:46:17;;;;;;;7.53;6.75;;;;;;;11.53;99.03;99484.00;1742968;82;25568;-58
2023/05/16 00:48:44;;;;;;;10.78;6.70;;;;;;;11.53;98.99;99483.42;1742911;81;27541;-58
2023/05/16 00:51:11;;;;;;;8.88;7.12;;;;;;;11.54;98.78;99480.14;1746107;81;25394;-58
2023/05/16 00:53:38;;;;;;;10.25;7.17;;;;;;;11.55;98.97;99474.97;1748026;81;25564;-59
2023/05/16 00:56:06;;;;;;;8.50;6.90;;;;;;;11.55;99.08;99476.33;1747971;82;26209;-59
2023/05/16 00:58:33;;;;;;;9.55;7.33;;;;;;;11.55;98.86;99479.03;1748046;82;25418;-59
2023/05/16 01:01:02;;;;;;;10.38;7.37;;;;;;;11.55;98.88;99479.03;1747984;82;28135;-59
2023/05/16 01:03:30;;;;;;;8.85;7.67;;;;;;;11.55;99.32;99467.63;1748076;81;25897;-55
2023/05/16 01:05:58;;;;;;;8.68;7.78;;;;;;;11.54;99.03;99474.19;1747978;82;25552;-56
2023/05/16 01:08:24;;;;;;;8.85;7.60;;;;;;;11.53;98.65;99461.77;1737546;82;25471;-57
2023/05/16 01:11:05;;;;;;;8.30;7.30;;;;;;;11.55;98.73;99469.55;1748034;81;25633;-55
2023/05/16 01:13:57;;;;;;;10.40;7.75;;;;;;;11.52;98.71;99479.12;1747877;81;27428;-55
2023/05/16 01:16:51;;;;;;;9.93;7.75;;;;;;;11.50;98.73;99476.54;1747785;82;25387;-55
2023/05/16 01:19:38;;;;;;;9.90;8.25;;;;;;;11.51;99.03;99476.75;1748015;82;25379;-59
2023/05/16 01:22:28;;;;;;;9.23;8.30;;;;;;;11.51;98.93;99484.88;1748615;81;25595;-60
2023/05/16 01:25:33;;;;;;;10.08;7.72;;;;;;;11.49;98.91;99486.59;1748066;82;25513;-60
2023/05/16 01:28:02;;;;;;;8.13;7.12;;;;;;;11.49;99.11;99492.00;1737590;82;27647;-60
2023/05/16 01:30:36;;;;;;;9.75;8.73;;;;;;;11.49;99.21;99503.38;1748093;81;26054;-57
2023/05/16 01:33:03;;;;;;;8.45;7.58;;;;;;;11.47;99.19;99494.80;1748020;81;25588;-58
2023/05/16 01:35:31;;;;;;;9.25;7.92;;;;;;;11.47;99.41;99492.88;1747929;81;25567;-58
2023/05/16 01:38:24;;;;;;;10.23;8.58;;;;;;;11.47;99.63;99501.58;1747965;82;25626;-58
2023/05/16 01:41:05;;;;;;;10.40;8.43;;;;;;;11.46;99.44;99502.69;1747118;81;27471;-58
2023/05/16 01:43:44;;;;;;;16.37;10.63;;;;;;;11.46;99.58;99504.04;1747678;81;25413;-57
2023/05/16 01:46:30;;;;;;;12.25;9.08;;;;;;;11.47;100.00;99505.63;1731586;82;25543;-57
2023/05/16 01:49:16;;;;;;;9.80;7.97;;;;;;;11.47;99.73;99505.63;1747842;81;25539;-58
2023/05/16 01:51:51;;;;;;;10.28;9.08;;;;;;;11.46;99.58;99507.56;1747975;81;25397;-58
2023/05/16 01:54:19;;;;;;;11.60;8.83;;;;;;;11.45;99.42;99511.38;1747968;82;27390;-59
2023/05/16 01:56:53;;;;;;;11.15;9.35;;;;;;;11.43;99.78;99508.22;1747848;82;25393;-59
2023/05/16 01:59:27;;;;;;;12.53;10.88;;;;;;;11.41;99.50;99517.25;1747976;81;25464;-59
2023/05/16 02:01:56;;;;;;;14.50;9.58;;;;;;;11.39;99.91;99524.34;1747911;81;25599;-59
2023/05/16 02:04:23;;;;;;;10.28;9.08;;;;;;;11.39;99.83;99524.89;1747992;81;25417;-59
2023/05/16 02:06:51;;;;;;;11.12;9.93;;;;;;;11.39;100.00;99523.53;1737488;82;27360;-59
2023/05/16 02:09:17;;;;;;;12.23;10.23;;;;;;;11.37;100.00;99517.66;1712891;82;25747;-59
2023/05/16 02:11:45;;;;;;;12.33;10.32;;;;;;;11.38;100.00;99527.38;1747928;82;25550;-59
2023/05/16 02:14:12;;;;;;;14.00;10.28;;;;;;;11.38;100.00;99519.26;1747863;81;27615;-59
2023/05/16 02:16:39;;;;;;;12.70;10.55;;;;;;;11.36;100.00;99519.59;1747974;81;25442;-58
2023/05/16 02:19:05;;;;;;;11.30;9.95;;;;;;;11.38;100.00;99525.45;1747981;81;27496;-58
2023/05/16 02:21:32;;;;;;;13.80;10.68;;;;;;;11.38;100.00;99524.11;1747843;82;27279;-57
2023/05/16 02:23:58;;;;;;;11.40;10.08;;;;;;;11.38;100.00;99530.09;1747918;82;25560;-57
2023/05/16 02:26:24;;;;;;;10.80;9.70;;;;;;;11.36;99.83;99522.87;1747862;81;25544;-58
2023/05/16 02:28:51;;;;;;;14.30;10.58;;;;;;;11.35;99.57;99526.69;1747937;81;25545;-57
2023/05/16 02:31:33;;;;;;;12.45;11.10;;;;;;;11.32;99.51;99530.05;1747894;82;27467;-57
2023/05/16 02:34:00;;;;;;;12.10;10.50;;;;;;;11.30;99.25;99535.02;1747860;82;25442;-58
2023/05/16 02:36:27;;;;;;;13.95;10.38;;;;;;;11.28;99.18;99533.20;1747986;81;25533;-56
2023/05/16 02:38:54;;;;;;;12.10;10.28;;;;;;;11.26;99.14;99536.81;1747859;81;25558;-56
2023/05/16 02:41:21;;;;;;;16.57;11.65;;;;;;;11.24;99.35;99543.09;1747955;81;25438;-59
2023/05/16 02:43:48;;;;;;;13.38;10.68;;;;;;;11.21;99.33;99544.00;1737522;82;27462;-58
2023/05/16 02:46:26;;;;;;;15.25;10.72;;;;;;;11.21;99.13;99543.22;1747830;81;25868;-58
2023/05/16 02:48:54;;;;;;;15.45;11.35;;;;;;;11.20;99.55;99547.84;1745190;80;25418;-57
2023/05/16 02:51:23;;;;;;;13.88;10.93;;;;;;;11.19;99.33;99545.47;1740462;82;25511;-58
2023/05/16 02:53:51;;;;;;;14.45;12.07;;;;;;;11.17;99.44;99545.80;1740652;82;25585;-58
2023/05/16 02:56:18;;;;;;;13.10;10.53;;;;;;;11.16;99.81;99544.77;1740492;82;28122;-57
2023/05/16 02:58:48;;;;;;;17.00;11.25;;;;;;;11.16;99.59;99541.48;1740893;81;25478;-58
2023/05/16 03:01:16;;;;;;;14.28;11.48;;;;;;;11.15;99.73;99541.28;1742866;82;25433;-57
2023/05/16 03:03:42;;;;;;;14.98;11.08;;;;;;;11.15;100.00;99549.94;1742881;81;25537;-58
2023/05/16 03:06:08;;;;;;;12.93;11.05;;;;;;;11.13;99.86;99550.84;1742920;82;25376;-57
2023/05/16 03:08:35;;;;;;;12.28;10.85;;;;;;;11.11;99.60;99550.38;1742843;81;27531;-58
2023/05/16 03:11:02;;;;;;;14.18;11.28;;;;;;;11.09;99.55;99560.18;1742805;82;25576;-59
2023/05/16 03:13:29;;;;;;;13.15;11.18;;;;;;;11.07;99.68;99558.37;1742923;81;25545;-58
2023/05/16 03:15:56;;;;;;;15.95;11.35;;;;;;;11.06;99.38;99551.93;1742865;82;25619;-59
2023/05/16 03:18:23;;;;;;;12.65;10.80;;;;;;;11.05;99.65;99548.98;1732602;82;25571;-59
2023/05/16 03:20:51;;;;;;;14.15;11.43;;;;;;;11.01;99.26;99550.98;1732595;82;27407;-58
2023/05/16 03:23:20;;;;;;;12.53;11.10;;;;;;;11.00;99.20;99560.25;1742807;81;25799;-59
2023/05/16 03:25:47;;;;;;;13.62;10.90;;;;;;;10.98;99.04;99558.98;1741995;81;25497;-58
2023/05/16 03:28:16;;;;;;;16.10;11.97;;;;;;;10.95;99.01;99558.30;1732702;82;25825;-58
2023/05/16 03:30:43;;;;;;;13.93;11.05;;;;;;;10.92;99.04;99557.03;1743170;82;25537;-56
2023/05/16 03:33:09;;;;;;;12.75;11.05;;;;;;;10.91;98.96;99554.66;1732676;82;27629;-58
2023/05/16 03:35:36;;;;;;;13.85;11.03;;;;;;;10.88;99.14;99566.13;1743046;81;25611;-58
2023/05/16 03:38:03;;;;;;;11.83;10.63;;;;;;;10.86;99.27;99570.52;1743015;82;25544;-59
2023/05/16 03:40:29;;;;;;;12.20;10.95;;;;;;;10.83;99.28;99571.98;1742985;82;25506;-59
2023/05/16 03:42:55;;;;;;;15.08;10.78;;;;;;;10.82;99.33;99564.19;1743033;81;25455;-56
2023/05/16 03:45:22;;;;;;;12.37;10.32;;;;;;;10.81;99.42;99570.70;1743042;81;27520;-58
2023/05/16 03:47:49;;;;;;;12.13;10.50;;;;;;;10.81;99.48;99562.05;1742917;82;25606;-57
2023/05/16 03:50:17;;;;;;;12.40;11.10;;;;;;;10.80;99.52;99562.38;1743325;81;25425;-58
2023/05/16 03:52:44;;;;;;;12.43;10.55;;;;;;;10.79;99.96;99560.20;1732681;82;25640;-58
2023/05/16 03:55:13;;;;;;;12.53;11.03;;;;;;;10.79;99.86;99562.91;1715339;82;25626;-58
2023/05/16 03:57:39;;;;;;;12.53;10.88;;;;;;;10.80;99.80;99566.44;1747262;82;27479;-58
2023/05/16 04:00:08;;;;;;;11.93;10.50;;;;;;;10.81;100.00;99565.30;1747902;82;25447;-58
2023/05/16 04:02:34;;;;;;;12.85;10.95;;;;;;;10.81;100.00;99565.30;1746602;82;25599;-58
2023/05/16 04:05:00;;;;;;;13.40;11.30;;;;;;;10.83;100.00;99571.20;1747995;82;26258;-58
2023/05/16 04:07:26;;;;;;;12.47;11.20;;;;;;;10.82;100.00;99563.62;1748036;81;25452;-58
2023/05/16 04:09:55;;;;;;;14.50;11.40;;;;;;;10.98;100.00;99598.22;1737600;82;27775;-59
2023/05/16 04:12:21;;;;;;;17.10;11.48;;;;;;;10.84;100.00;99568.16;1748110;81;25355;-59
2023/05/16 04:14:48;;;;;;;13.88;12.15;;;;;;;10.88;100.00;99575.60;1748014;82;25568;-58
2023/05/16 04:17:15;;;;;;;15.15;11.70;;;;;;;10.90;100.00;99574.73;1737510;82;25576;-59
2023/05/16 04:19:41;;;;;;;13.22;11.93;;;;;;;10.90;100.00;99578.23;1737711;82;25466;-58
2023/05/16 04:22:07;;;;;;;14.33;11.45;;;;;;;10.93;100.00;99585.69;1737595;82;27378;-59
2023/05/16 04:24:33;;;;;;;17.85;11.90;;;;;;;10.95;100.00;99575.33;1737447;82;25611;-58
2023/05/16 04:27:00;;;;;;;14.45;12.47;;;;;;;10.99;100.00;99580.88;1747995;81;25475;-59
2023/05/16 04:29:26;;;;;;;14.23;11.83;;;;;;;11.02;100.00;99588.34;1747953;81;25543;-59
2023/05/16 04:31:53;;;;;;;12.98;11.57;;;;;;;11.07;100.00;99577.86;1748046;82;25583;-59
2023/05/16 04:34:19;;;;;;;13.18;11.75;;;;;;;11.10;100.00;99575.85;1747984;81;28185;-60
2023/05/16 04:36:45;;;;;;;14.85;11.73;;;;;;;11.13;100.00;99577.33;1747896;81;25374;-60
2023/05/16 04:39:11;;;;;;;15.43;11.33;;;;;;;11.19;100.00;99578.73;1747975;82;25544;-59
2023/05/16 04:41:37;;;;;;;14.90;11.85;;;;;;;11.24;100.00;99576.39;1747989;82;25480;-59
2023/05/16 04:44:04;;;;;;;15.75;11.60;;;;;;;11.29;100.00;99574.03;1748011;82;25564;-59
2023/05/16 04:46:30;;;;;;;14.23;11.00;;;;;;;11.33;100.00;99565.49;1748022;81;27463;-59
2023/05/16 04:48:56;;;;;;;14.63;10.95;;;;;;;11.39;100.00;99564.15;1747927;80;25537;-58
2023/05/16 04:51:23;;;;;;;13.13;11.28;;;;;;;11.45;100.00;99572.88;1740613;82;25541;-59
2023/05/16 04:53:49;;;;;;;13.65;10.40;;;;;;;11.50;100.00;99575.38;1742498;82;25579;-60
2023/05/16 04:56:15;;;;;;;11.93;10.72;;;;;;;11.56;100.00;99571.33;1743013;81;32839;-59
2023/05/16 04:58:41;;;;;;;14.80;10.35;;;;;;;11.62;100.00;99580.06;1742893;82;27528;-59
2023/05/16 05:01:07;;;;;;;11.80;9.83;;;;;;;11.67;99.69;99567.66;1742902;81;32787;-59
2023/05/16 05:03:34;;;;;;;22.17;11.22;;;;;;;11.73;99.23;99586.62;1742998;81;29676;-63
2023/05/16 05:06:02;;;;;;;11.73;9.75;;;;;;;11.78;99.33;99575.03;1742933;82;25555;-62
2023/05/16 05:08:28;;;;;;;11.90;10.70;;;;;;;11.86;99.36;99574.70;1732224;82;25634;-62
2023/05/16 05:10:56;;;;;;;12.18;10.00;;;;;;;11.95;98.91;99576.80;1742927;81;27421;-64
2023/05/16 05:13:23;;;;;;;13.08;9.43;;;;;;;12.05;98.50;99584.27;1742905;81;25508;-61
2023/05/16 05:15:51;;;;;;;14.23;10.20;;;;;;;12.12;97.95;99580.43;1742985;81;25511;-61
2023/05/16 05:18:18;;;;;;;10.18;9.15;;;;;;;12.21;97.73;99583.85;1742911;82;25615;-62
2023/05/16 05:20:46;;;;;;;11.25;9.25;;;;;;;12.29;96.57;99588.39;1742917;81;25546;-61
2023/05/16 05:23:12;;;;;;;11.25;10.00;;;;;;;12.39;96.35;99594.48;1732598;82;27398;-62
2023/05/16 05:25:39;;;;;;;12.98;10.03;;;;;;;12.46;95.38;99594.70;1742750;82;27451;-61
2023/05/16 05:28:06;;;;;;;10.78;8.70;;;;;;;12.55;95.40;99595.41;1742894;82;25611;-61
2023/05/16 05:30:32;;;;;;;9.60;8.70;;;;;;;12.64;94.17;99611.56;1742852;82;27614;-60
2023/05/16 05:32:58;;;;;;;10.53;9.35;;;;;;;12.71;94.14;99601.72;1743011;81;25377;-61
2023/05/16 05:35:24;;;;;;;12.18;9.08;;;;;;;12.81;94.06;99606.48;1742970;81;28479;-59
2023/05/16 05:37:52;;;;;;;11.60;8.98;;;;;;;12.89;92.52;99605.00;1743007;82;25415;-60
2023/05/16 05:40:18;;;;;;;9.85;8.85;;;;;;;12.97;92.33;99602.49;1742921;82;25573;-59
2023/05/16 05:42:44;;;;;;;14.47;10.28;;;;;;;13.03;91.60;99611.42;1742871;81;25514;-61
2023/05/16 05:45:11;;;;;;;14.80;9.73;;;;;;;13.12;91.84;99612.65;1732456;82;25440;-59
2023/05/16 05:47:38;;;;;;;12.88;9.63;;;;;;;13.18;90.64;99622.15;1742910;81;27573;-61
2023/05/16 05:50:10;;;;;;;11.65;9.95;;;;;;;13.22;90.49;99615.46;1742663;81;25774;-60
2023/05/16 05:52:37;;;;;;;11.28;10.18;;;;;;;13.28;90.86;99619.53;1742972;82;25393;-59
2023/05/16 05:55:05;;;;;;;11.25;10.03;;;;;;;13.37;90.98;99620.78;1742884;81;25645;-59
2023/05/16 05:57:31;;;;;;;11.85;10.63;;;;;;;13.45;90.35;99628.79;1732839;81;25459;-60
2023/05/16 05:59:58;;;;;;;11.43;10.18;;;;;;;13.50;90.09;99625.05;1742933;81;28106;-58
2023/05/16 06:02:24;;;;;;;14.68;10.18;;;;;;;13.54;89.21;99633.30;1742845;81;25583;-60
2023/05/16 06:04:51;;;;;;;12.03;10.40;;;;;;;13.61;89.75;99636.21;1742960;81;25595;-60
2023/05/16 06:07:18;;;;;;;17.40;11.85;;;;;;;13.68;90.06;99643.77;1742208;82;26071;-59
2023/05/16 06:09:45;;;;;;;13.22;10.30;;;;;;;13.76;89.46;99654.50;1742802;82;25223;-60
2023/05/16 06:12:12;;;;;;;12.68;10.30;;;;;;;13.84;88.60;99656.83;1742939;82;27480;-60
2023/05/16 06:14:39;;;;;;;13.98;10.00;;;;;;;13.88;87.66;99668.61;1742842;82;26149;-58
2023/05/16 06:17:05;;;;;;;13.55;10.13;;;;;;;13.91;86.44;99669.83;1714891;82;25212;-58
2023/05/16 06:19:38;;;;;;;11.68;10.05;;;;;;;13.90;86.17;99675.84;1742887;82;25512;-59
2023/05/16 06:22:05;;;;;;;13.03;9.20;;;;;;;13.93;85.15;99680.59;1742914;82;25570;-60
2023/05/16 06:24:31;;;;;;;11.55;9.93;;;;;;;13.97;86.37;99690.20;1742923;82;27554;-59
2023/05/16 06:26:57;;;;;;;12.15;10.05;;;;;;;14.02;85.80;99688.59;1742930;80;25370;-60
2023/05/16 06:44:54;;;;;;;10.98;9.98;;;;;;;14.43;82.89;99725.23;1718752;80;26831;-59
2023/05/16 06:47:21;;;;;;;10.53;9.50;;;;;;;14.37;81.69;99735.59;1718852;83;25404;-59
2023/05/16 06:49:49;;;;;;;13.03;10.38;;;;;;;14.33;80.24;99734.69;1718620;83;27478;-60
2023/05/16 06:52:16;;;;;;;12.93;10.35;;;;;;;14.28;80.21;99734.94;1718099;83;25689;-57
2023/05/16 06:54:42;;;;;;;10.95;9.43;;;;;;;14.23;79.66;99738.70;1693107;84;25750;-59
2023/05/16 06:57:08;;;;;;;10.30;9.30;;;;;;;14.18;79.06;99742.47;1693073;84;25796;-59
2023/05/16 06:59:35;;;;;;;11.25;10.18;;;;;;;14.17;78.88;99755.05;1693832;84;25652;-60
2023/05/16 07:02:01;;;;;;;11.73;10.30;;;;;;;14.11;78.04;99750.41;1693946;84;27487;-59
2023/05/16 07:04:28;;;;;;;13.93;10.95;;;;;;;14.06;78.37;99753.38;1693810;84;25572;-56
2023/05/16 07:06:55;;;;;;;12.55;10.20;;;;;;;14.09;79.06;99757.34;1693951;84;25571;-59
2023/05/16 07:09:21;;;;;;;12.95;10.60;;;;;;;14.10;78.97;99763.02;1668997;84;25583;-59
2023/05/16 07:11:47;;;;;;;13.68;10.43;;;;;;;14.07;78.96;99756.91;1671985;84;25624;-59
2023/05/16 07:14:13;;;;;;;16.10;12.28;;;;;;;14.07;79.06;99765.06;1693898;84;27471;-59
2023/05/16 07:16:40;;;;;;;13.22;11.60;;;;;;;14.08;79.77;99766.63;1693796;84;25431;-58
2023/05/16 07:19:07;;;;;;;12.35;10.43;;;;;;;14.05;78.00;99780.94;1693859;84;25613;-58
2023/05/16 07:25:57;;;;;;;11.12;9.95;;;;;;;14.20;80.76;99781.57;1693994;84;25391;-58
2023/05/16 07:28:24;;;;;;;10.78;9.65;;;;;;;14.44;80.72;99793.46;1693886;84;27538;-60
2023/05/16 07:30:50;;;;;;;18.98;11.20;;;;;;;14.43;78.92;99804.14;1672198;84;25999;-61
2023/05/16 07:33:17;;;;;;;12.85;10.48;;;;;;;14.42;78.88;99817.52;1693884;84;25452;-63
2023/05/16 07:35:43;;;;;;;11.45;10.05;;;;;;;14.39;77.53;99812.21;1693835;84;25506;-62
2023/05/16 07:38:10;;;;;;;11.45;10.25;;;;;;;14.34;77.19;99815.17;1693947;84;25503;-61
2023/05/16 07:40:37;;;;;;;11.40;10.20;;;;;;;14.34;77.31;99824.70;1693873;84;27506;-62
2023/05/16 07:43:03;;;;;;;10.82;9.78;;;;;;;14.32;77.48;99826.40;1693822;84;25640;-62
2023/05/16 07:45:29;;;;;;;12.03;10.82;;;;;;;14.40;78.02;99828.73;1695761;83;25452;-62
2023/05/16 07:47:55;;;;;;;11.60;9.95;;;;;;;14.40;77.52;99840.98;1703902;84;25568;-62
2023/05/16 07:50:22;;;;;;;12.95;10.82;;;;;;;14.39;77.36;99837.48;1721095;83;25573;-62
2023/05/16 07:52:48;;;;;;;9.45;8.55;;;;;;;14.47;77.59;99843.11;1721147;83;27496;-62
2023/05/16 07:55:14;;;;;;;9.38;8.48;;;;;;;14.52;75.18;99856.48;1721028;83;25417;-62
2023/05/16 07:57:40;;;;;;;8.55;7.78;;;;;;;14.61;75.27;99849.00;1721096;83;25410;-62
2023/05/16 08:00:08;;;;;;;7.35;6.55;;;;;;;14.72;75.05;99856.87;1721000;83;25509;-62
2023/05/16 08:02:35;;;;;;;6.62;5.95;;;;;;;14.91;76.28;99848.07;1721093;83;25420;-62
2023/05/16 08:05:01;;;;;;;8.08;5.55;;;;;;;15.08;74.89;99848.28;1690501;83;28096;-62
2023/05/16 08:07:28;;;;;;;6.42;5.83;;;;;;;15.26;74.85;99852.05;1720947;83;25394;-61
2023/05/16 08:09:54;;;;;;;8.15;5.72;;;;;;;15.46;75.09;99849.63;1721049;83;25408;-61
2023/05/16 08:12:20;;;;;;;6.95;4.80;;;;;;;15.62;74.51;99845.52;1720997;83;25586;-62
2023/05/16 08:14:46;;;;;;;6.72;5.12;;;;;;;15.77;72.32;99848.05;1721066;83;25640;-64
2023/05/16 08:17:12;;;;;;;6.03;5.42;;;;;;;15.76;72.43;99843.72;1721031;83;27551;-64
2023/05/16 08:19:39;;;;;;;9.03;5.22;;;;;;;15.76;70.91;99859.30;1721068;83;25630;-64
2023/05/16 08:22:06;;;;;;;6.08;4.62;;;;;;;15.67;70.95;99862.97;1721026;83;25382;-64
2023/05/16 08:24:32;;;;;;;5.42;4.92;;;;;;;15.54;70.34;99870.23;1690400;83;25663;-64
2023/05/16 08:26:59;;;;;;;5.65;5.05;;;;;;;15.44;70.50;99866.10;1721125;83;25604;-64
2023/05/16 08:29:25;;;;;;;9.45;5.05;;;;;;;15.33;70.52;99864.48;1720973;83;27556;-61
2023/05/16 08:31:51;;;;;;;5.92;5.33;;;;;;;15.24;70.96;99857.06;1720929;83;25543;-59
2023/05/16 08:34:18;;;;;;;6.00;5.12;;;;;;;15.22;71.30;99861.50;1721053;83;25613;-62
2023/05/16 08:36:44;;;;;;;7.12;5.55;;;;;;;15.22;71.42;99858.78;1721015;83;25500;-59
2023/05/16 08:39:10;;;;;;;5.45;4.95;;;;;;;15.22;71.36;99855.23;1721045;83;25547;-60
2023/05/16 08:41:37;;;;;;;7.17;5.53;;;;;;;15.18;71.42;99855.16;1721140;83;27516;-60
2023/05/16 08:44:04;;;;;;;6.92;4.95;;;;;;;15.20;72.01;99854.81;1719116;83;25560;-60
2023/05/16 08:46:34;;;;;;;5.30;4.80;;;;;;;15.17;70.73;99854.14;1704468;84;25589;-59
2023/05/16 08:49:06;;;;;;;5.37;4.80;;;;;;;15.05;70.83;99858.54;1704411;84;25642;-60
2023/05/16 08:51:35;;;;;;;4.37;4.05;;;;;;;15.00;71.29;99859.34;1704230;83;25675;-61
2023/05/16 08:54:06;;;;;;;4.45;4.03;;;;;;;15.01;71.70;99860.94;1704487;84;27477;-61
2023/05/16 08:56:35;;;;;;;7.40;4.55;;;;;;;15.06;71.43;99868.28;1704097;83;25811;-63
2023/05/16 08:59:02;;;;;;;5.92;4.90;;;;;;;15.10;71.49;99869.17;1704443;84;25565;-66
2023/05/16 09:01:31;;;;;;;4.87;3.95;;;;;;;15.15;72.10;99864.02;1704375;84;25516;-66
2023/05/16 09:03:59;;;;;;;5.00;4.03;;;;;;;15.37;72.57;99860.48;1704176;84;25471;-63
2023/05/16 09:06:26;;;;;;;7.25;3.98;;;;;;;15.75;73.87;99868.06;1703011;84;27644;-63
2023/05/16 09:08:54;;;;;;;5.17;3.58;;;;;;;16.28;73.03;99866.30;1703467;83;26287;-63
2023/05/16 09:11:20;;;;;;;5.70;3.15;;;;;;;16.62;71.86;99870.70;1703998;84;25706;-62
2023/05/16 09:13:48;;;;;;;6.00;3.20;;;;;;;16.78;70.07;99867.87;1703948;84;25663;-62
2023/05/16 09:16:18;;;;;;;4.50;3.40;;;;;;;16.88;69.21;99873.36;1704046;84;26179;-62
2023/05/16 09:18:55;;;;;;;4.62;3.42;;;;;;;16.89;68.10;99874.36;1702929;83;28013;-59
2023/05/16 09:21:30;;;;;;;3.60;3.30;;;;;;;16.86;67.18;99880.55;1704374;84;25594;-60
2023/05/16 09:24:05;;;;;;;5.28;4.25;;;;;;;16.76;67.70;99879.73;1704422;84;25652;-58
2023/05/16 09:26:37;;;;;;;4.08;3.62;;;;;;;16.73;66.98;99884.55;1704440;84;25638;-56
2023/05/16 09:29:13;;;;;;;4.35;3.42;;;;;;;16.63;66.59;99890.00;1704432;83;25467;-56
2023/05/16 09:31:40;;;;;;;3.50;3.20;;;;;;;16.58;66.65;99884.83;1704443;84;27515;-55
2023/05/16 09:34:12;;;;;;;4.10;3.08;;;;;;;16.63;67.29;99890.00;1704342;84;25763;-59
2023/05/16 09:36:39;;;;;;;4.78;3.17;;;;;;;16.76;67.22;99902.36;1704492;84;25616;-56
2023/05/16 09:39:06;;;;;;;3.37;3.08;;;;;;;16.76;65.29;99910.56;1704357;84;25501;-59
2023/05/16 09:41:35;;;;;;;2.60;2.40;;;;;;;16.70;65.53;99903.02;1704471;84;25450;-54
2023/05/16 09:44:06;;;;;;;4.57;3.17;;;;;;;16.81;66.02;99925.87;1704645;84;27488;-59
2023/05/16 09:46:36;;;;;;;4.00;3.45;;;;;;;16.81;66.02;99925.87;1704254;84;25397;-55
2023/05/16 09:49:02;;;;;;;5.15;3.70;;;;;;;16.76;65.22;99924.22;1704372;84;25447;-59
2023/05/16 09:51:28;;;;;;;4.60;3.20;;;;;;;16.73;65.11;99926.29;1704367;84;25640;-58
2023/05/16 09:53:58;;;;;;;3.70;3.40;;;;;;;16.86;65.61;99933.03;1686019;84;25446;-57
2023/05/16 09:56:25;;;;;;;8.13;4.25;;;;;;;16.90;65.17;99936.02;1704403;84;27533;-57
2023/05/16 09:58:51;;;;;;;3.85;3.45;;;;;;;17.12;65.61;99933.13;1704314;84;25454;-57
2023/05/16 10:01:18;;;;;;;3.70;3.40;;;;;;;17.24;65.03;99938.22;1704421;84;25571;-59
2023/05/16 10:03:44;;;;;;;3.80;3.50;;;;;;;17.36;64.95;99938.83;1704375;84;25570;-57
2023/05/16 10:06:12;;;;;;;4.00;3.60;;;;;;;17.46;64.72;99941.55;1704392;83;25415;-60
2023/05/16 10:08:42;;;;;;;3.65;3.08;;;;;;;17.52;64.38;99940.10;1704385;84;27564;-59
2023/05/16 10:11:10;;;;;;;5.00;2.95;;;;;;;17.62;63.51;99948.28;1704348;84;25593;-61
2023/05/16 10:13:38;;;;;;;2.87;2.67;;;;;;;17.63;62.19;99949.84;1704378;83;25584;-64
2023/05/16 10:16:11;;;;;;;5.17;2.80;;;;;;;17.63;62.62;99957.27;1704437;84;25525;-62
2023/05/16 10:18:40;;;;;;;3.92;2.80;;;;;;;17.52;62.17;99960.61;1704435;84;25210;-63
2023/05/16 10:21:12;;;;;;;3.17;2.95;;;;;;;17.40;62.45;99968.98;1704592;84;27545;-63
2023/05/16 10:23:42;;;;;;;3.62;2.95;;;;;;;17.20;61.85;99968.78;1704385;83;25464;-63
2023/05/16 10:26:13;;;;;;;2.80;2.60;;;;;;;17.00;62.46;99975.64;1704478;84;25476;-63
2023/05/16 10:28:41;;;;;;;4.92;3.08;;;;;;;16.84;62.93;99983.07;1704458;84;25635;-64
2023/05/16 10:31:10;;;;;;;3.33;2.72;;;;;;;16.73;63.13;99987.73;1704520;83;25217;-63
2023/05/16 10:33:39;;;;;;;5.50;2.98;;;;;;;16.57;63.46;99978.83;1704483;84;27516;-63
2023/05/16 10:36:10;;;;;;;5.70;3.30;;;;;;;16.46;64.37;99979.16;1704513;84;25414;-64
2023/05/16 10:38:38;;;;;;;3.05;2.80;;;;;;;16.46;64.37;99979.16;1704447;84;25588;-63
2023/05/16 10:41:07;;;;;;;3.75;3.45;;;;;;;16.40;64.32;99986.84;1704552;84;25671;-64
2023/05/16 10:43:34;;;;;;;4.00;3.27;;;;;;;16.32;64.50;99989.96;1704501;84;25516;-63
2023/05/16 10:46:09;;;;;;;5.80;3.17;;;;;;;16.28;64.69;99994.56;1704225;83;27254;-55
2023/05/16 10:48:39;;;;;;;40.90;36.90;;;;;;;16.28;65.07;100001.38;1704297;84;25644;-56
2023/05/16 10:51:38;;;;;;;4.03;3.00;;;;;;;16.30;64.65;99998.30;1704397;83;25420;-52
2023/05/16 10:54:11;;;;;;;2.98;2.77;;;;;;;16.29;64.74;100011.13;1704465;83;25574;-52
2023/05/16 10:56:39;;;;;;;3.62;2.50;;;;;;;16.21;63.76;100004.73;1704418;84;25663;-52
2023/05/16 10:59:27;;;;;;;3.22;2.65;;;;;;;16.16;64.19;100006.95;1704340;84;27920;-55
2023/05/16 11:01:56;;;;;;;4.90;4.08;;;;;;;16.12;64.58;100003.33;1704295;84;25676;-57
2023/05/16 11:04:23;;;;;;;4.45;3.15;;;;;;;16.15;65.16;99994.44;1704435;84;25411;-53
2023/05/16 11:06:55;;;;;;;3.42;2.70;;;;;;;16.20;64.93;99996.90;1704336;84;25432;-55
2023/05/16 11:09:26;;;;;;;3.33;2.70;;;;;;;16.34;65.83;100001.31;1704395;84;25647;-54
2023/05/16 11:11:58;;;;;;;2.77;2.58;;;;;;;16.52;65.56;100003.09;1704408;84;27443;-51
2023/05/16 11:14:42;;;;;;;2.92;2.42;;;;;;;16.58;64.88;100000.87;1704328;84;25471;-54
2023/05/16 11:17:16;;;;;;;3.00;2.80;;;;;;;16.64;64.42;100008.22;1704414;83;25586;-54
2023/05/16 11:19:49;;;;;;;3.15;2.85;;;;;;;16.68;63.77;100016.69;1704275;83;26098;-54
2023/05/16 11:22:32;;;;;;;5.30;2.58;;;;;;;16.70;64.20;100016.34;1704458;84;25643;-54
2023/05/16 11:25:09;;;;;;;5.83;2.47;;;;;;;16.84;65.17;100010.38;1704390;84;27393;-58
2023/05/16 11:27:46;;;;;;;3.10;2.80;;;;;;;16.99;64.41;100017.76;1704309;84;25577;-55
2023/05/16 11:30:18;;;;;;;2.85;2.52;;;;;;;17.11;64.13;100020.37;1704400;84;25618;-56
2023/05/16 11:32:47;;;;;;;5.72;3.25;;;;;;;17.14;64.00;100025.67;1704357;84;25645;-54
2023/05/16 11:35:20;;;;;;;2.72;2.50;;;;;;;17.18;63.37;100030.66;1704520;84;25553;-56
2023/05/16 11:37:49;;;;;;;2.85;2.60;;;;;;;17.16;62.92;100042.50;1704339;84;28040;-53
2023/05/16 11:40:18;;;;;;;3.37;2.58;;;;;;;17.09;62.36;100044.51;1704370;84;25634;-57
2023/05/16 11:42:47;;;;;;;3.85;2.58;;;;;;;17.04;62.38;100050.26;1704513;84;25575;-57
2023/05/16 11:45:23;;;;;;;3.55;2.55;;;;;;;17.09;63.07;100048.61;1706360;83;25569;-56
2023/05/16 11:47:49;;;;;;;3.62;2.83;;;;;;;17.18;63.89;100037.48;1721095;83;25408;-57
2023/05/16 11:50:22;;;;;;;3.62;2.62;;;;;;;17.32;63.46;100041.86;1721110;83;27341;-57
2023/05/16 11:52:52;;;;;;;4.03;2.10;;;;;;;17.50;63.40;100041.41;1721043;83;25620;-53